createdAt,value
2023-03-18T00:01:07.575Z,99307.06
2023-03-18T00:03:37.600Z,99291.47
2023-03-18T00:06:13.979Z,99290.59
2023-03-18T00:08:42.776Z,99294.94
2023-03-18T00:11:11.342Z,99298.53
2023-03-18T00:13:38.872Z,99284.66
2023-03-18T00:16:06.874Z,99279.53
2023-03-18T00:18:34.471Z,99280.50
2023-03-18T00:21:02.094Z,99277.16
2023-03-18T00:23:29.164Z,99279.00
2023-03-18T00:25:58.386Z,99268.75
2023-03-18T00:28:26.004Z,99266.19
2023-03-18T00:30:54.280Z,99261.03
2023-03-18T00:33:21.345Z,99261.00
2023-03-18T00:35:48.605Z,99252.28
2023-03-18T00:38:20.821Z,99252.25
2023-03-18T00:41:01.406Z,99241.78
2023-03-18T00:43:33.778Z,99249.53
2023-03-18T00:46:01.169Z,99239.91
2023-03-18T00:48:28.127Z,99253.75
2023-03-18T00:50:56.072Z,99244.09
2023-03-18T00:53:25.170Z,99241.44
2023-03-18T00:55:53.207Z,99237.09
2023-03-18T00:58:20.242Z,99237.03
2023-03-18T01:00:47.826Z,99235.41
2023-03-18T01:03:14.831Z,99229.50
2023-03-18T01:05:42.503Z,99228.81
2023-03-18T01:08:09.607Z,99232.34
2023-03-18T01:10:36.922Z,99230.66
2023-03-18T01:13:03.853Z,99229.00
2023-03-18T01:15:31.125Z,99228.16
2023-03-18T01:17:58.533Z,99220.41
2023-03-18T01:20:25.969Z,99219.56
2023-03-18T01:22:52.813Z,99217.88
2023-03-18T01:25:20.472Z,99211.91
2023-03-18T01:27:47.377Z,99211.06
2023-03-18T01:30:14.871Z,99217.19
2023-03-18T01:32:43.929Z,99218.13
2023-03-18T01:35:12.393Z,99207.75
2023-03-18T01:37:39.774Z,99219.03
2023-03-18T01:40:11.376Z,99212.13
2023-03-18T01:42:38.745Z,99208.69
2023-03-18T01:45:21.730Z,99213.91
2023-03-18T01:47:49.940Z,99207.00
2023-03-18T01:50:26.338Z,99208.78
2023-03-18T01:52:58.154Z,99218.34
2023-03-18T01:55:28.331Z,99217.47
2023-03-18T01:57:56.424Z,99214.03
2023-03-18T02:00:24.072Z,99214.91
2023-03-18T02:02:55.442Z,99218.38
2023-03-18T02:05:28.945Z,99223.53
2023-03-18T02:07:55.940Z,99222.69
2023-03-18T02:10:29.388Z,99222.66
2023-03-18T02:13:03.641Z,99221.81
2023-03-18T02:15:33.976Z,99227.81
2023-03-18T02:18:08.124Z,99226.97
2023-03-18T02:20:53.668Z,99219.19
2023-03-18T02:23:29.258Z,99223.47
2023-03-18T02:26:10.482Z,99225.16
2023-03-18T02:28:38.823Z,99221.69
2023-03-18T02:31:11.951Z,99219.94
2023-03-18T02:33:41.003Z,99216.47
2023-03-18T02:36:13.761Z,99218.22
2023-03-18T02:38:43.150Z,99212.19
2023-03-18T02:41:21.956Z,99216.50
2023-03-18T02:43:50.080Z,99213.06
2023-03-18T02:49:21.585Z,99211.44
2023-03-18T02:51:49.428Z,99204.53
2023-03-18T02:54:20.989Z,99201.94
2023-03-18T02:56:48.592Z,99194.97
2023-03-18T02:59:15.867Z,99192.28
2023-03-18T03:01:45.211Z,99202.56
2023-03-18T03:04:12.475Z,99195.50
2023-03-18T03:06:40.751Z,99196.22
2023-03-18T03:09:10.358Z,99194.41
2023-03-18T03:11:37.825Z,99201.31
2023-03-18T03:14:05.265Z,99198.59
2023-03-18T03:16:32.821Z,99194.22
2023-03-18T03:18:59.672Z,99194.22
2023-03-18T03:21:27.898Z,99200.38
2023-03-18T03:23:56.137Z,99200.53
2023-03-18T03:26:23.244Z,99198.97
2023-03-18T03:28:50.088Z,99206.88
2023-03-18T03:31:17.842Z,99208.69
2023-03-18T03:33:45.375Z,99206.19
2023-03-18T03:36:15.650Z,99203.59
2023-03-18T03:38:43.651Z,99205.38
2023-03-18T03:41:12.418Z,99199.34
2023-03-18T03:43:40.700Z,99197.59
2023-03-18T03:46:09.579Z,99195.00
2023-03-18T03:48:37.221Z,99206.25
2023-03-18T03:51:05.504Z,99204.53
2023-03-18T03:53:34.053Z,99213.16
2023-03-18T03:56:01.245Z,99209.72
2023-03-18T03:58:29.188Z,99217.47
2023-03-18T04:00:56.561Z,99221.81
2023-03-18T04:03:23.857Z,99221.81
2023-03-18T04:05:51.204Z,99222.69
2023-03-18T04:08:18.227Z,99218.34
2023-03-18T04:10:45.496Z,99217.47
2023-03-18T04:13:12.356Z,99219.22
2023-03-18T04:15:40.075Z,99220.91
2023-03-18T04:18:07.319Z,99225.22
2023-03-18T04:20:37.683Z,99223.47
2023-03-18T04:23:05.086Z,99220.88
2023-03-18T04:25:33.316Z,99220.88
2023-03-18T04:28:00.244Z,99222.56
2023-03-18T04:30:28.322Z,99219.94
2023-03-18T04:32:55.466Z,99226.84
2023-03-18T04:35:23.584Z,99223.41
2023-03-18T04:37:50.810Z,99226.81
2023-03-18T04:40:18.464Z,99231.09
2023-03-18T04:42:47.944Z,99225.06
2023-03-18T04:45:16.289Z,99231.97
2023-03-18T04:47:45.339Z,99236.31
2023-03-18T04:50:13.870Z,99232.94
2023-03-18T04:52:42.882Z,99233.91
2023-03-18T04:55:10.905Z,99236.50
2023-03-18T04:57:38.644Z,99233.06
2023-03-18T05:00:10.355Z,99228.66
2023-03-18T05:02:40.027Z,99221.53
2023-03-18T05:05:08.159Z,99225.53
2023-03-18T05:07:35.374Z,99226.00
2023-03-18T05:10:03.403Z,99222.88
2023-03-18T05:12:30.637Z,99218.69
2023-03-18T05:14:57.540Z,99219.50
2023-03-18T05:17:25.642Z,99218.59
2023-03-18T05:19:52.493Z,99219.25
2023-03-18T05:22:22.038Z,99224.91
2023-03-18T05:24:49.726Z,99220.97
2023-03-18T05:27:18.996Z,99218.34
2023-03-18T05:29:46.326Z,99222.63
2023-03-18T05:32:15.181Z,99217.34
2023-03-18T05:34:43.025Z,99220.84
2023-03-18T05:37:12.226Z,99226.56
2023-03-18T05:39:39.586Z,99225.09
2023-03-18T05:42:07.541Z,99224.09
2023-03-18T05:44:34.859Z,99213.00
2023-03-18T05:47:02.747Z,99225.59
2023-03-18T05:49:29.836Z,99218.66
2023-03-18T05:51:57.135Z,99224.50
2023-03-18T05:54:24.259Z,99227.53
2023-03-18T05:56:52.792Z,99222.25
2023-03-18T05:59:20.579Z,99221.09
2023-03-18T06:01:49.193Z,99217.00
2023-03-18T06:04:20.100Z,99217.84
2023-03-18T06:06:48.400Z,99213.84
2023-03-18T06:09:16.647Z,99208.22
2023-03-18T06:11:45.717Z,99207.44
2023-03-18T06:14:13.111Z,99218.50
2023-03-18T06:16:41.821Z,99217.22
2023-03-18T06:19:10.850Z,99222.16
2023-03-18T06:21:41.201Z,99221.00
2023-03-18T06:24:09.594Z,99222.97
2023-03-18T06:26:36.971Z,99223.56
2023-03-18T06:29:05.365Z,99218.59
2023-03-18T06:31:33.089Z,99221.00
2023-03-18T06:34:01.420Z,99230.75
2023-03-18T06:36:28.874Z,99224.75
2023-03-18T06:38:56.162Z,99226.88
2023-03-18T06:41:23.523Z,99232.00
2023-03-18T06:43:51.855Z,99227.22
2023-03-18T06:46:19.452Z,99225.41
2023-03-18T06:48:46.640Z,99223.41
2023-03-18T06:51:13.917Z,99231.25
2023-03-18T06:53:42.106Z,99227.53
2023-03-18T06:56:10.007Z,99222.16
2023-03-18T06:58:37.862Z,99219.84
2023-03-18T07:01:05.412Z,99221.25
2023-03-18T07:03:32.984Z,99222.84
2023-03-18T07:06:01.292Z,99220.75
2023-03-18T07:08:29.360Z,99213.03
2023-03-18T07:10:57.802Z,99216.13
2023-03-18T07:13:25.069Z,99214.22
2023-03-18T07:15:52.444Z,99217.63
2023-03-18T07:18:19.731Z,99212.59
2023-03-18T07:20:46.990Z,99222.22
2023-03-18T07:23:14.227Z,99216.53
2023-03-18T07:25:42.469Z,99226.63
2023-03-18T07:28:09.401Z,99224.41
2023-03-18T07:30:36.782Z,99223.66
2023-03-18T07:33:04.455Z,99232.19
2023-03-18T07:35:32.814Z,99229.88
2023-03-18T07:37:59.829Z,99227.88
2023-03-18T07:40:27.116Z,99228.09
2023-03-18T07:42:53.955Z,99221.84
2023-03-18T07:45:21.149Z,99215.72
2023-03-18T07:47:48.331Z,99223.34
2023-03-18T07:50:16.352Z,99228.19
2023-03-18T07:52:43.317Z,99227.66
2023-03-18T07:55:12.105Z,99221.16
2023-03-18T07:57:39.287Z,99221.38
2023-03-18T08:00:08.610Z,99218.81
2023-03-18T08:02:36.281Z,99216.69
2023-03-18T08:05:06.884Z,99222.00
2023-03-18T08:07:35.672Z,99218.66
2023-03-18T08:10:03.418Z,99225.19
2023-03-18T08:12:45.283Z,99222.06
2023-03-18T08:15:18.662Z,99226.66
2023-03-18T08:17:45.974Z,99222.91
2023-03-18T08:20:13.500Z,99224.56
2023-03-18T08:22:40.343Z,99225.34
2023-03-18T08:25:08.152Z,99224.09
2023-03-18T08:27:35.183Z,99223.81
2023-03-18T08:30:03.955Z,99229.88
2023-03-18T08:32:31.209Z,99226.88
2023-03-18T08:34:58.447Z,99228.94
2023-03-18T08:37:26.047Z,99222.63
2023-03-18T08:39:53.251Z,99226.53
2023-03-18T08:42:20.379Z,99218.75
2023-03-18T08:44:47.676Z,99216.31
2023-03-18T08:47:15.050Z,99222.34
2023-03-18T08:49:42.439Z,99223.59
2023-03-18T08:52:10.600Z,99214.09
2023-03-18T08:54:37.919Z,99223.78
2023-03-18T08:57:04.973Z,99219.56
2023-03-18T08:59:32.146Z,99219.09
2023-03-18T09:01:59.149Z,99213.66
2023-03-18T09:04:26.471Z,99210.63
2023-03-18T09:06:53.423Z,99210.13
2023-03-18T09:09:22.805Z,99208.84
2023-03-18T09:11:51.460Z,99209.59
2023-03-18T09:14:18.789Z,99210.69
2023-03-18T09:16:46.203Z,99201.84
2023-03-18T09:19:13.512Z,99206.44
2023-03-18T09:21:40.378Z,99193.38
2023-03-18T09:24:07.793Z,99187.72
2023-03-18T09:26:34.666Z,99194.47
2023-03-18T09:29:01.963Z,99194.03
2023-03-18T09:31:28.822Z,99197.03
2023-03-18T09:33:56.467Z,99204.31
2023-03-18T09:36:23.409Z,99201.50
2023-03-18T09:38:50.644Z,99206.22
2023-03-18T09:41:38.749Z,99200.31
2023-03-18T09:44:13.766Z,99189.84
2023-03-18T09:46:58.745Z,99197.53
2023-03-18T09:49:59.376Z,99192.75
2023-03-18T09:52:31.987Z,99190.31
2023-03-18T09:55:52.547Z,99183.34
2023-03-18T09:58:46.710Z,99190.00
2023-03-18T10:01:15.923Z,99192.56
2023-03-18T10:03:53.924Z,99192.25
2023-03-18T10:06:23.865Z,99176.41
2023-03-18T10:09:12.392Z,99170.47
2023-03-18T10:11:44.375Z,99168.41
2023-03-18T10:14:48.750Z,99172.16
2023-03-18T10:17:30.394Z,99163.19
2023-03-18T10:20:04.631Z,99155.19
2023-03-18T10:22:53.384Z,99166.41
2023-03-18T10:25:28.935Z,99161.81
2023-03-18T10:28:20.965Z,99162.25
2023-03-18T10:31:01.375Z,99157.97
2023-03-18T10:33:46.685Z,99153.13
2023-03-18T10:36:19.302Z,99163.19
2023-03-18T10:38:51.905Z,99146.16
2023-03-18T10:41:25.388Z,99148.88
2023-03-18T10:43:55.664Z,99150.31
2023-03-18T10:46:25.660Z,99154.22
2023-03-18T10:48:59.261Z,99146.16
2023-03-18T10:51:54.141Z,99136.66
2023-03-18T10:54:41.265Z,99127.69
2023-03-18T10:57:14.616Z,99137.91
2023-03-18T10:59:44.761Z,99129.53
2023-03-18T11:02:20.476Z,99126.50
2023-03-18T11:04:54.530Z,99122.81
2023-03-18T11:07:28.606Z,99131.09
2023-03-18T11:10:12.170Z,99117.91
2023-03-18T11:12:39.177Z,99114.34
2023-03-18T11:15:13.465Z,99118.75
2023-03-18T11:17:40.874Z,99116.00
2023-03-18T11:20:17.075Z,99116.59
2023-03-18T11:22:47.835Z,99108.72
2023-03-18T11:25:17.151Z,99106.75
2023-03-18T11:27:47.239Z,99095.19
2023-03-18T11:30:36.586Z,99100.41
2023-03-18T11:33:25.349Z,99094.47
2023-03-18T11:35:53.910Z,99088.09
2023-03-18T11:38:32.834Z,99087.38
2023-03-18T11:41:08.939Z,99082.06
2023-03-18T11:43:38.052Z,99081.13
2023-03-18T11:46:08.998Z,99082.38
2023-03-18T11:48:39.458Z,99078.66
2023-03-18T11:51:28.744Z,99070.19
2023-03-18T11:54:40.401Z,99069.06
2023-03-18T11:57:25.678Z,99070.88
2023-03-18T12:00:01.044Z,99061.06
2023-03-18T12:02:46.857Z,99068.97
2023-03-18T12:05:41.937Z,99065.78
2023-03-18T12:08:34.478Z,99056.25
2023-03-18T12:11:20.073Z,99063.69
2023-03-18T12:14:00.197Z,99063.25
2023-03-18T12:16:50.481Z,99059.97
2023-03-18T12:19:51.406Z,99056.00
2023-03-18T12:22:26.701Z,99057.19
2023-03-18T12:25:03.243Z,99054.31
2023-03-18T12:27:59.130Z,99052.03
2023-03-18T12:30:53.238Z,99047.13
2023-03-18T12:33:48.952Z,99041.38
2023-03-18T12:36:36.806Z,99043.25
2023-03-18T12:39:43.485Z,99041.00
2023-03-18T12:42:14.593Z,99044.94
2023-03-18T12:44:41.465Z,99046.00
2023-03-18T12:47:20.544Z,99048.75
2023-03-18T12:50:12.794Z,99041.13
2023-03-18T12:52:45.692Z,99045.81
2023-03-18T12:55:27.004Z,99042.06
2023-03-18T12:58:08.732Z,99044.78
2023-03-18T13:00:38.768Z,99044.66
2023-03-18T13:03:28.658Z,99047.72
2023-03-18T13:05:58.498Z,99041.28
2023-03-18T13:08:40.780Z,99046.28
2023-03-18T13:11:29.356Z,99045.25
2023-03-18T13:14:01.678Z,99035.28
2023-03-18T13:16:30.467Z,99031.84
2023-03-18T13:18:59.216Z,99032.00
2023-03-18T13:21:31.046Z,99037.22
2023-03-18T13:24:26.170Z,99032.38
2023-03-18T13:27:15.454Z,99023.75
2023-03-18T13:29:48.682Z,99027.66
2023-03-18T13:32:38.454Z,99026.69
2023-03-18T13:35:56.720Z,99027.44
2023-03-18T13:38:47.666Z,99026.50
2023-03-18T13:41:33.584Z,99027.25
2023-03-18T13:44:12.901Z,99026.38
2023-03-18T13:46:43.675Z,99023.94
2023-03-18T13:49:32.097Z,99032.00
2023-03-18T13:52:02.121Z,99029.38
2023-03-18T13:54:37.931Z,99017.97
2023-03-18T13:57:19.131Z,99017.97
2023-03-18T13:59:48.492Z,99016.47
2023-03-18T14:02:24.901Z,99022.56
2023-03-18T14:04:53.251Z,99010.06
2023-03-18T14:07:22.527Z,99005.81
2023-03-18T14:10:17.248Z,99001.75
2023-03-18T14:12:49.795Z,99002.56
2023-03-18T14:15:39.695Z,99008.34
2023-03-18T14:18:19.986Z,99003.59
2023-03-18T14:20:53.537Z,99008.59
2023-03-18T14:24:00.638Z,98999.50
2023-03-18T14:26:27.807Z,99007.44
2023-03-18T14:29:23.736Z,99002.06
2023-03-18T14:31:58.089Z,98998.72
2023-03-18T14:34:32.040Z,98992.72
2023-03-18T14:36:58.821Z,98992.66
2023-03-18T14:39:48.009Z,98987.56
2023-03-18T14:42:58.522Z,98987.66
2023-03-18T14:45:33.890Z,98986.31
2023-03-18T14:48:11.737Z,98981.56
2023-03-18T14:50:47.257Z,98981.84
2023-03-18T14:53:34.771Z,98981.06
2023-03-18T14:56:04.158Z,98982.88
2023-03-18T14:58:34.350Z,98980.22
2023-03-18T15:01:09.163Z,98974.34
2023-03-18T15:03:39.966Z,98983.06
2023-03-18T15:06:08.147Z,98975.13
2023-03-18T15:08:47.695Z,98972.66
2023-03-18T15:11:18.191Z,98971.88
2023-03-18T15:13:45.264Z,98964.13
2023-03-18T15:16:18.287Z,98962.50
2023-03-18T15:18:45.910Z,98969.69
2023-03-18T15:21:32.582Z,98972.59
2023-03-18T15:24:03.782Z,98976.56
2023-03-18T15:26:34.185Z,98971.47
2023-03-18T15:29:16.073Z,98970.91
2023-03-18T15:31:44.765Z,98979.88
2023-03-18T15:34:16.240Z,98973.22
2023-03-18T15:36:45.802Z,98971.59
2023-03-18T15:39:45.347Z,98961.59
2023-03-18T15:42:19.913Z,98967.94
2023-03-18T15:44:58.525Z,98966.44
2023-03-18T15:47:33.518Z,98976.28
2023-03-18T15:50:14.677Z,98974.66
2023-03-18T15:52:43.122Z,98981.03
2023-03-18T15:55:28.073Z,98970.81
2023-03-18T15:57:56.276Z,98979.09
2023-03-18T16:00:23.520Z,98977.47
2023-03-18T16:02:51.624Z,98979.53
2023-03-18T16:05:23.201Z,98980.28
2023-03-18T16:07:55.382Z,98971.34
2023-03-18T16:10:25.812Z,98974.56
2023-03-18T16:12:58.030Z,98987.56
2023-03-18T16:15:26.520Z,98992.63
2023-03-18T16:17:55.632Z,98996.72
2023-03-18T16:20:28.955Z,98990.50
2023-03-18T16:22:57.919Z,98996.41
2023-03-18T16:25:26.517Z,98994.34
2023-03-18T16:27:59.797Z,98997.59
2023-03-18T16:30:29.740Z,99001.75
2023-03-18T16:32:58.327Z,98997.16
2023-03-18T16:35:30.864Z,98995.38
2023-03-18T16:37:59.866Z,98993.78
2023-03-18T16:40:29.248Z,99006.34
2023-03-18T16:42:56.780Z,99015.66
2023-03-18T16:45:34.094Z,99001.94
2023-03-18T16:48:04.124Z,99009.66
2023-03-18T16:50:36.007Z,99014.22
2023-03-18T16:53:03.729Z,99012.38
2023-03-18T16:55:31.701Z,99017.72
2023-03-18T16:58:00.637Z,99016.03
2023-03-18T17:00:31.857Z,99027.47
2023-03-18T17:03:00.940Z,99029.00
2023-03-18T17:05:28.631Z,99029.66
2023-03-18T17:07:55.973Z,99037.34
2023-03-18T17:10:25.944Z,99031.69
2023-03-18T17:12:59.669Z,99048.81
2023-03-18T17:15:29.966Z,99037.38
2023-03-18T17:18:00.110Z,99044.97
2023-03-18T17:20:30.353Z,99041.84
2023-03-18T17:22:58.358Z,99042.31
2023-03-18T17:25:28.071Z,99046.25
2023-03-18T17:28:03.046Z,99046.78
2023-03-18T17:30:39.465Z,99044.69
2023-03-18T17:33:29.088Z,99043.38
2023-03-18T17:35:56.657Z,99042.81
2023-03-18T17:38:24.518Z,99051.00
2023-03-18T17:40:52.110Z,99056.53
2023-03-18T17:43:34.405Z,99052.56
2023-03-18T17:46:03.225Z,99053.75
2023-03-18T17:48:35.197Z,99054.03
2023-03-18T17:51:17.495Z,99057.72
2023-03-18T17:53:51.499Z,99058.81
2023-03-18T17:56:20.277Z,99062.63
2023-03-18T17:58:50.500Z,99065.53
2023-03-18T18:01:26.547Z,99070.03
2023-03-18T18:03:59.014Z,99072.81
2023-03-18T18:06:32.076Z,99066.91
2023-03-18T18:09:01.043Z,99067.94
2023-03-18T18:11:33.336Z,99057.72
2023-03-18T18:14:06.696Z,99063.91
2023-03-18T18:16:33.563Z,99054.44
2023-03-18T18:19:00.768Z,99051.09
2023-03-18T18:21:27.729Z,99059.09
2023-03-18T18:23:54.946Z,99055.78
2023-03-18T18:26:22.205Z,99051.59
2023-03-18T18:28:51.732Z,99053.50
2023-03-18T18:31:19.918Z,99053.66
2023-03-18T18:33:50.135Z,99051.13
2023-03-18T18:36:18.155Z,99058.19
2023-03-18T18:38:45.806Z,99055.66
2023-03-18T18:41:12.769Z,99053.13
2023-03-18T18:43:39.937Z,99051.50
2023-03-18T18:46:19.698Z,99053.31
2023-03-18T18:48:50.330Z,99053.34
2023-03-18T18:51:19.467Z,99062.97
2023-03-18T18:53:47.711Z,99060.38
2023-03-18T18:56:22.372Z,99063.00
2023-03-18T18:58:51.894Z,99055.25
2023-03-18T19:01:19.888Z,99054.47
2023-03-18T19:03:48.415Z,99059.75
2023-03-18T19:06:35.966Z,99053.75
2023-03-18T19:09:18.961Z,99053.81
2023-03-18T19:11:53.240Z,99043.50
2023-03-18T19:14:27.428Z,99049.69
2023-03-18T19:16:59.588Z,99053.19
2023-03-18T19:19:34.697Z,99057.66
2023-03-18T19:22:02.986Z,99055.13
2023-03-18T19:24:32.703Z,99060.38
2023-03-18T19:27:02.972Z,99053.47
2023-03-18T19:29:32.633Z,99064.84
2023-03-18T19:32:01.410Z,99065.69
2023-03-18T19:34:29.855Z,99063.19
2023-03-18T19:36:57.048Z,99066.59
2023-03-18T19:39:25.257Z,99069.16
2023-03-18T19:41:52.238Z,99062.19
2023-03-18T19:44:26.688Z,99063.94
2023-03-18T19:46:56.436Z,99063.09
2023-03-18T19:49:33.772Z,99069.16
2023-03-18T19:52:02.509Z,99063.09
2023-03-18T19:54:36.681Z,99061.34
2023-03-18T19:57:07.283Z,99057.78
2023-03-18T19:59:39.126Z,99056.78
2023-03-18T20:02:30.588Z,99055.81
2023-03-18T20:04:59.730Z,99054.91
2023-03-18T20:07:30.407Z,99059.19
2023-03-18T20:09:57.638Z,99057.44
2023-03-18T20:12:39.012Z,99056.59
2023-03-18T20:15:13.080Z,99053.13
2023-03-18T20:17:42.102Z,99047.94
2023-03-18T20:20:19.410Z,99048.88
2023-03-18T20:22:53.030Z,99039.44
2023-03-18T20:25:24.663Z,99045.66
2023-03-18T20:27:53.635Z,99045.72
2023-03-18T20:30:37.423Z,99041.41
2023-03-18T20:33:05.243Z,99040.63
2023-03-18T20:35:36.056Z,99035.47
2023-03-18T20:38:33.344Z,99038.06
2023-03-18T20:41:01.167Z,99035.53
2023-03-18T20:43:29.279Z,99038.13
2023-03-18T20:45:58.354Z,99032.94
2023-03-18T20:48:25.738Z,99029.50
2023-03-18T20:50:53.480Z,99029.56
2023-03-18T20:53:26.333Z,99025.31
2023-03-18T20:55:53.608Z,99027.97
2023-03-18T20:58:30.212Z,99025.38
2023-03-18T21:00:57.591Z,99019.34
2023-03-18T21:03:30.085Z,99021.09
2023-03-18T21:05:59.460Z,99015.94
2023-03-18T21:08:28.097Z,99009.09
2023-03-18T21:10:58.557Z,99013.47
2023-03-18T21:13:36.096Z,99013.53
2023-03-18T21:16:08.549Z,99015.28
2023-03-18T21:18:35.723Z,99010.13
2023-03-18T21:21:03.008Z,99010.97
2023-03-18T21:23:32.284Z,99001.41
2023-03-18T21:25:59.570Z,99005.69
2023-03-18T21:28:28.765Z,99006.50
2023-03-18T21:30:58.411Z,99007.31
2023-03-18T21:33:31.351Z,99003.84
2023-03-18T21:35:59.246Z,99011.66
2023-03-18T21:38:29.233Z,99009.03
2023-03-18T21:40:58.238Z,99016.00
2023-03-18T21:43:36.761Z,99009.09
2023-03-18T21:46:06.723Z,99011.72
2023-03-18T21:48:33.774Z,99005.69
2023-03-18T21:51:01.298Z,99009.19
2023-03-18T21:53:28.766Z,99010.06
2023-03-18T21:55:56.293Z,99007.50
2023-03-18T21:58:25.759Z,99016.19
2023-03-18T22:00:56.190Z,99008.44
2023-03-18T22:03:25.845Z,99008.47
2023-03-18T22:05:53.649Z,99011.94
2023-03-18T22:08:21.484Z,99009.31
2023-03-18T22:10:50.663Z,99016.28
2023-03-18T22:13:23.783Z,99011.94
2023-03-18T22:15:56.163Z,99006.69
2023-03-18T22:18:23.804Z,98998.91
2023-03-18T22:20:51.695Z,99004.09
2023-03-18T22:23:24.712Z,99002.31
2023-03-18T22:25:54.564Z,99011.72
2023-03-18T22:28:22.623Z,99010.75
2023-03-18T22:30:52.837Z,99014.16
2023-03-18T22:33:26.583Z,99006.25
2023-03-18T22:35:53.931Z,99008.81
2023-03-18T22:38:23.104Z,99005.34
2023-03-18T22:40:53.097Z,99015.81
2023-03-18T22:43:31.045Z,99015.88
2023-03-18T22:45:59.835Z,99015.09
2023-03-18T22:48:27.136Z,99014.34
2023-03-18T22:50:55.086Z,99018.72
2023-03-18T22:53:25.672Z,99010.97
2023-03-18T22:55:55.947Z,99014.47
2023-03-18T22:58:26.381Z,99018.81
2023-03-18T23:00:55.179Z,99015.34
2023-03-18T23:03:33.872Z,99018.88
2023-03-18T23:06:02.152Z,99017.16
2023-03-18T23:08:29.608Z,99020.66
2023-03-18T23:11:01.387Z,99011.13
2023-03-18T23:13:38.639Z,99005.88
2023-03-18T23:16:07.691Z,99002.34
2023-03-18T23:18:34.854Z,98997.94
2023-03-18T23:21:02.084Z,99002.09
2023-03-18T23:23:30.460Z,98998.44
2023-03-18T23:25:57.950Z,99004.34
2023-03-18T23:28:24.962Z,98998.94
2023-03-18T23:30:53.109Z,99004.03
2023-03-18T23:33:20.597Z,98994.44
2023-03-18T23:35:48.917Z,98998.75
2023-03-18T23:38:16.218Z,98998.81
2023-03-18T23:40:43.432Z,98998.88
2023-03-18T23:43:10.492Z,98996.31
2023-03-18T23:45:38.701Z,99003.25
2023-03-18T23:48:06.766Z,98999.00
2023-03-18T23:50:34.195Z,98993.84
2023-03-18T23:53:01.311Z,98998.16
2023-03-18T23:55:34.912Z,98999.94
2023-03-18T23:58:05.296Z,99000.00
